createdAt,value
2017-02-14T00:00:49.274Z,1021.11
2017-02-14T00:01:59.062Z,1021.12
2017-02-14T00:03:09.419Z,1021.14
2017-02-14T00:04:18.746Z,1021.11
2017-02-14T00:05:29.383Z,1021.15
2017-02-14T00:06:39.583Z,1021.1
2017-02-14T00:07:49.797Z,1021.09
2017-02-14T00:08:59.599Z,1021.09
2017-02-14T00:10:09.341Z,1021.1
2017-02-14T00:11:19.528Z,1021.09
2017-02-14T00:12:29.290Z,1021.09
2017-02-14T00:13:39.491Z,1021.07
2017-02-14T00:14:49.330Z,1021.03
2017-02-14T00:15:59.533Z,1021.02
2017-02-14T00:17:09.293Z,1021.03
2017-02-14T00:18:19.067Z,1021.02
2017-02-14T00:19:28.396Z,1020.99
2017-02-14T00:20:39.068Z,1020.97
2017-02-14T00:21:48.838Z,1020.95
2017-02-14T00:22:58.600Z,1020.94
2017-02-14T00:24:08.372Z,1020.91
2017-02-14T00:25:17.686Z,1020.94
2017-02-14T00:26:27.482Z,1020.92
2017-02-14T00:27:36.793Z,1020.95
2017-02-14T00:28:46.097Z,1020.86
2017-02-14T00:29:56.305Z,1020.84
2017-02-14T00:31:06.047Z,1020.83
2017-02-14T00:32:15.428Z,1020.81
2017-02-14T00:33:25.645Z,1020.85
2017-02-14T00:34:35.840Z,1020.88
2017-02-14T00:35:45.173Z,1020.8
2017-02-14T00:36:54.949Z,1020.81
2017-02-14T00:38:05.644Z,1020.81
2017-02-14T00:39:15.843Z,1020.81
2017-02-14T00:40:26.078Z,1020.8
2017-02-14T00:41:35.382Z,1020.84
2017-02-14T00:42:44.713Z,1020.87
2017-02-14T00:43:54.516Z,1020.84
2017-02-14T00:45:04.261Z,1020.82
2017-02-14T00:46:14.448Z,1020.84
2017-02-14T00:47:23.767Z,1020.8
2017-02-14T00:48:34.409Z,1020.86
2017-02-14T00:49:44.232Z,1020.8
2017-02-14T00:50:54.876Z,1020.83
2017-02-14T00:52:05.515Z,1020.81
2017-02-14T00:53:15.266Z,1020.8
2017-02-14T00:54:25.467Z,1020.83
2017-02-14T00:55:36.592Z,1020.84
2017-02-14T00:56:47.233Z,1020.81
2017-02-14T00:57:57.058Z,1020.82
2017-02-14T00:59:07.251Z,1020.82
2017-02-14T01:00:17.014Z,1020.78
2017-02-14T01:01:26.854Z,1020.8
2017-02-14T01:02:37.941Z,1020.77
2017-02-14T01:03:47.686Z,1020.76
2017-02-14T01:04:56.988Z,1020.77
2017-02-14T01:06:06.305Z,1020.76
2017-02-14T01:07:16.540Z,1020.74
2017-02-14T01:08:26.318Z,1020.75
2017-02-14T01:09:36.945Z,1020.79
2017-02-14T01:10:47.583Z,1020.72
2017-02-14T01:11:57.370Z,1020.75
2017-02-14T01:13:06.750Z,1020.74
2017-02-14T01:14:16.079Z,1020.69
2017-02-14T01:15:26.304Z,1020.71
2017-02-14T01:16:36.062Z,1020.69
2017-02-14T01:17:46.254Z,1020.64
2017-02-14T01:18:56.644Z,1020.65
2017-02-14T01:20:05.963Z,1020.65
2017-02-14T01:21:16.150Z,1020.61
2017-02-14T01:22:25.933Z,1020.62
2017-02-14T01:23:35.684Z,1020.56
2017-02-14T01:24:46.394Z,1020.59
2017-02-14T01:25:56.151Z,1020.59
2017-02-14T01:27:05.916Z,1020.54
2017-02-14T01:28:15.677Z,1020.6
2017-02-14T01:29:25.450Z,1020.59
2017-02-14T01:30:34.819Z,1020.61
2017-02-14T01:31:45.030Z,1020.54
2017-02-14T01:32:55.247Z,1020.55
2017-02-14T01:34:05.443Z,1020.57
2017-02-14T01:35:15.657Z,1020.49
2017-02-14T01:36:25.909Z,1020.52
2017-02-14T01:37:36.107Z,1020.5
2017-02-14T01:38:45.467Z,1020.46
2017-02-14T01:39:55.661Z,1020.47
2017-02-14T01:41:06.730Z,1020.47
2017-02-14T01:42:16.099Z,1020.5
2017-02-14T01:43:25.872Z,1020.45
2017-02-14T01:44:36.517Z,1020.44
2017-02-14T01:45:46.707Z,1020.48
2017-02-14T01:46:56.899Z,1020.44
2017-02-14T01:48:06.691Z,1020.43
2017-02-14T01:49:16.032Z,1020.42
2017-02-14T01:50:25.351Z,1020.38
2017-02-14T01:51:35.992Z,1020.46
2017-02-14T01:52:45.786Z,1020.4
2017-02-14T01:53:55.147Z,1020.4
2017-02-14T01:55:05.799Z,1020.4
2017-02-14T01:56:16.025Z,1020.39
2017-02-14T01:57:25.788Z,1020.38
2017-02-14T01:58:35.111Z,1020.43
2017-02-14T01:59:45.349Z,1020.44
2017-02-14T02:00:54.695Z,1020.46
2017-02-14T02:02:05.369Z,1020.48
2017-02-14T02:03:14.680Z,1020.46
2017-02-14T02:04:24.870Z,1020.41
2017-02-14T02:05:34.683Z,1020.39
2017-02-14T02:06:44.008Z,1020.38
2017-02-14T02:07:54.222Z,1020.34
2017-02-14T02:09:04.455Z,1020.38
2017-02-14T02:10:14.648Z,1020.36
2017-02-14T02:11:24.500Z,1020.44
2017-02-14T02:12:34.258Z,1020.43
2017-02-14T02:13:44.457Z,1020.42
2017-02-14T02:14:53.776Z,1020.41
2017-02-14T02:16:03.550Z,1020.45
2017-02-14T02:17:12.920Z,1020.44
2017-02-14T02:18:23.152Z,1020.42
2017-02-14T02:19:33.362Z,1020.48
2017-02-14T02:20:43.562Z,1020.44
2017-02-14T02:21:53.755Z,1020.46
2017-02-14T02:23:04.440Z,1020.45
2017-02-14T02:24:14.632Z,1020.46
2017-02-14T02:25:24.407Z,1020.46
2017-02-14T02:26:34.612Z,1020.45
2017-02-14T02:27:44.803Z,1020.4
2017-02-14T02:28:54.166Z,1020.44
2017-02-14T02:30:03.480Z,1020.44
2017-02-14T02:31:12.804Z,1020.41
2017-02-14T02:32:23.005Z,1020.42
2017-02-14T02:33:32.773Z,1020.39
2017-02-14T02:34:42.584Z,1020.38
2017-02-14T02:35:52.350Z,1020.31
2017-02-14T02:37:02.109Z,1020.35
2017-02-14T02:38:11.448Z,1020.36
2017-02-14T02:39:21.213Z,1020.32
2017-02-14T02:40:31.014Z,1020.28
2017-02-14T02:41:40.783Z,1020.31
2017-02-14T02:42:50.976Z,1020.28
2017-02-14T02:44:01.167Z,1020.27
2017-02-14T02:45:10.511Z,1020.29
2017-02-14T02:46:20.480Z,1020.27
2017-02-14T02:47:30.236Z,1020.29
2017-02-14T02:48:39.994Z,1020.26
2017-02-14T02:49:49.751Z,1020.27
2017-02-14T02:50:59.529Z,1020.28
2017-02-14T02:52:09.341Z,1020.29
2017-02-14T02:53:19.562Z,1020.28
2017-02-14T02:54:29.332Z,1020.28
2017-02-14T02:55:39.534Z,1020.3
2017-02-14T02:56:49.299Z,1020.27
2017-02-14T02:57:59.592Z,1020.27
2017-02-14T02:59:09.393Z,1020.25
2017-02-14T03:00:19.162Z,1020.27
2017-02-14T03:01:29.366Z,1020.24
2017-02-14T03:02:39.111Z,1020.25
2017-02-14T03:03:48.926Z,1020.24
2017-02-14T03:04:58.698Z,1020.23
2017-02-14T03:06:08.450Z,1020.25
2017-02-14T03:07:18.232Z,1020.2
2017-02-14T03:08:28.447Z,1020.22
2017-02-14T03:09:38.271Z,1020.22
2017-02-14T03:10:48.950Z,1020.24
2017-02-14T03:11:58.706Z,1020.21
2017-02-14T03:13:08.478Z,1020.18
2017-02-14T03:14:18.245Z,1020.25
2017-02-14T03:15:27.607Z,1020.27
2017-02-14T03:16:37.383Z,1020.23
2017-02-14T03:17:46.739Z,1020.16
2017-02-14T03:18:56.507Z,1020.16
2017-02-14T03:20:06.269Z,1020.14
2017-02-14T03:21:16.548Z,1020.12
2017-02-14T03:22:25.871Z,1020.14
2017-02-14T03:23:35.625Z,1020.14
2017-02-14T03:24:45.418Z,1020.16
2017-02-14T03:25:55.188Z,1020.15
2017-02-14T03:27:05.472Z,1020.18
2017-02-14T03:28:15.237Z,1020.18
2017-02-14T03:29:25.010Z,1020.2
2017-02-14T03:30:34.819Z,1020.21
2017-02-14T03:31:44.580Z,1020.2
2017-02-14T03:32:54.417Z,1020.2
2017-02-14T03:34:04.215Z,1020.21
2017-02-14T03:35:14.422Z,1020.25
2017-02-14T03:36:24.625Z,1020.25
2017-02-14T03:37:34.396Z,1020.24
2017-02-14T03:38:44.244Z,1020.28
2017-02-14T03:39:54.877Z,1020.28
2017-02-14T03:41:04.630Z,1020.29
2017-02-14T03:42:14.858Z,1020.28
2017-02-14T03:43:24.633Z,1020.28
2017-02-14T03:44:34.454Z,1020.25
2017-02-14T03:45:44.219Z,1020.25
2017-02-14T03:46:53.990Z,1020.26
2017-02-14T03:48:03.782Z,1020.25
2017-02-14T03:49:13.578Z,1020.3
2017-02-14T03:50:23.557Z,1020.28
2017-02-14T03:51:32.930Z,1020.29
2017-02-14T03:52:42.298Z,1020.28
2017-02-14T03:53:52.511Z,1020.26
2017-02-14T03:55:02.277Z,1020.28
2017-02-14T03:56:12.544Z,1020.27
2017-02-14T03:57:22.331Z,1020.25
2017-02-14T03:58:32.972Z,1020.23
2017-02-14T03:59:43.610Z,1020.25
2017-02-14T04:00:53.376Z,1020.24
2017-02-14T04:02:03.180Z,1020.27
2017-02-14T04:03:13.381Z,1020.27
2017-02-14T04:04:23.150Z,1020.28
2017-02-14T04:05:32.911Z,1020.25
2017-02-14T04:06:42.708Z,1020.23
2017-02-14T04:07:52.963Z,1020.25
2017-02-14T04:09:02.319Z,1020.31
2017-02-14T04:10:12.093Z,1020.3
2017-02-14T04:11:22.309Z,1020.27
2017-02-14T04:12:32.114Z,1020.31
2017-02-14T04:13:42.391Z,1020.28
2017-02-14T04:14:52.140Z,1020.27
2017-02-14T04:16:01.910Z,1020.32
2017-02-14T04:17:11.667Z,1020.32
2017-02-14T04:18:22.744Z,1020.32
2017-02-14T04:19:32.669Z,1020.33
2017-02-14T04:20:42.864Z,1020.34
2017-02-14T04:21:52.205Z,1020.34
2017-02-14T04:23:01.977Z,1020.38
2017-02-14T04:24:11.750Z,1020.38
2017-02-14T04:25:21.563Z,1020.4
2017-02-14T04:26:31.770Z,1020.38
2017-02-14T04:27:41.570Z,1020.37
2017-02-14T04:28:51.783Z,1020.36
2017-02-14T04:30:01.560Z,1020.36
2017-02-14T04:31:11.521Z,1020.38
2017-02-14T04:32:21.274Z,1020.39
2017-02-14T04:33:31.050Z,1020.37
2017-02-14T04:34:40.368Z,1020.41
2017-02-14T04:35:50.138Z,1020.38
2017-02-14T04:37:00.391Z,1020.44
2017-02-14T04:38:10.160Z,1020.46
2017-02-14T04:39:19.925Z,1020.44
2017-02-14T04:40:30.123Z,1020.49
2017-02-14T04:41:39.895Z,1020.48
2017-02-14T04:42:50.625Z,1020.51
2017-02-14T04:44:00.434Z,1020.48
2017-02-14T04:45:10.193Z,1020.48
2017-02-14T04:46:19.501Z,1020.52
2017-02-14T04:47:29.273Z,1020.53
2017-02-14T04:48:39.518Z,1020.51
2017-02-14T04:49:49.725Z,1020.49
2017-02-14T04:50:59.492Z,1020.47
2017-02-14T04:52:09.287Z,1020.52
2017-02-14T04:53:19.040Z,1020.51
2017-02-14T04:54:29.287Z,1020.48
2017-02-14T04:55:39.074Z,1020.52
2017-02-14T04:56:49.267Z,1020.59
2017-02-14T04:57:59.020Z,1020.53
2017-02-14T04:59:08.802Z,1020.56
2017-02-14T05:00:18.607Z,1020.56
2017-02-14T05:01:28.396Z,1020.57
2017-02-14T05:02:38.173Z,1020.55
2017-02-14T05:03:48.422Z,1020.55
2017-02-14T05:04:58.619Z,1020.57
2017-02-14T05:06:08.432Z,1020.57
2017-02-14T05:07:18.221Z,1020.55
2017-02-14T05:08:28.031Z,1020.54
2017-02-14T05:09:37.786Z,1020.6
2017-02-14T05:10:47.101Z,1020.61
2017-02-14T05:11:56.934Z,1020.58
2017-02-14T05:13:06.703Z,1020.64
2017-02-14T05:14:16.460Z,1020.59
2017-02-14T05:15:26.666Z,1020.58
2017-02-14T05:16:36.463Z,1020.6
2017-02-14T05:17:46.709Z,1020.59
2017-02-14T05:18:56.463Z,1020.62
2017-02-14T05:20:05.803Z,1020.65
2017-02-14T05:21:16.012Z,1020.65
2017-02-14T05:22:25.781Z,1020.63
2017-02-14T05:23:36.048Z,1020.58
2017-02-14T05:24:45.797Z,1020.62
2017-02-14T05:25:55.133Z,1020.6
2017-02-14T05:27:04.882Z,1020.54
2017-02-14T05:28:15.097Z,1020.54
2017-02-14T05:29:25.033Z,1020.56
2017-02-14T05:30:35.226Z,1020.59
2017-02-14T05:31:45.031Z,1020.6
2017-02-14T05:32:55.245Z,1020.61
2017-02-14T05:34:04.997Z,1020.63
2017-02-14T05:35:14.798Z,1020.63
2017-02-14T05:36:24.553Z,1020.61
2017-02-14T05:37:33.877Z,1020.61
2017-02-14T05:38:43.682Z,1020.61
2017-02-14T05:39:53.887Z,1020.59
2017-02-14T05:41:04.584Z,1020.65
2017-02-14T05:42:14.359Z,1020.62
2017-02-14T05:43:25.011Z,1020.64
2017-02-14T05:44:34.808Z,1020.62
2017-02-14T05:45:45.013Z,1020.79
2017-02-14T05:46:55.262Z,1020.65
2017-02-14T05:48:05.024Z,1020.62
2017-02-14T05:49:14.788Z,1020.65
2017-02-14T05:50:24.991Z,1020.66
2017-02-14T05:51:34.320Z,1020.67
2017-02-14T05:52:43.696Z,1020.69
2017-02-14T05:53:53.497Z,1020.64
2017-02-14T05:55:03.255Z,1020.67
2017-02-14T05:56:12.579Z,1020.69
2017-02-14T05:57:22.344Z,1020.67
2017-02-14T05:58:32.605Z,1020.67
2017-02-14T05:59:42.355Z,1020.67
2017-02-14T06:00:51.677Z,1020.65
2017-02-14T06:02:01.458Z,1020.64
2017-02-14T06:03:11.212Z,1020.62
2017-02-14T06:04:21.122Z,1020.71
2017-02-14T06:05:30.447Z,1020.71
2017-02-14T06:06:40.654Z,1020.72
2017-02-14T06:07:50.415Z,1020.73
2017-02-14T06:09:00.605Z,1020.72
2017-02-14T06:10:10.410Z,1020.74
2017-02-14T06:11:20.179Z,1020.7
2017-02-14T06:12:30.393Z,1020.66
2017-02-14T06:13:39.709Z,1020.72
2017-02-14T06:14:49.918Z,1020.69
2017-02-14T06:15:59.892Z,1020.71
2017-02-14T06:17:09.650Z,1020.71
2017-02-14T06:18:18.976Z,1020.71
2017-02-14T06:19:28.300Z,1020.77
2017-02-14T06:20:38.089Z,1020.73
2017-02-14T06:21:47.907Z,1020.73
2017-02-14T06:22:57.262Z,1020.78
2017-02-14T06:24:07.031Z,1020.79
2017-02-14T06:25:17.262Z,1020.77
2017-02-14T06:26:27.070Z,1020.78
2017-02-14T06:27:37.339Z,1020.72
2017-02-14T06:28:47.541Z,1020.7
2017-02-14T06:29:57.746Z,1020.71
2017-02-14T06:31:07.494Z,1020.74
2017-02-14T06:32:17.248Z,1020.77
2017-02-14T06:33:27.057Z,1020.77
2017-02-14T06:34:37.279Z,1020.81
2017-02-14T06:35:47.488Z,1020.78
2017-02-14T06:36:57.689Z,1020.84
2017-02-14T06:38:07.894Z,1020.88
2017-02-14T06:39:17.703Z,1020.83
2017-02-14T06:40:27.909Z,1020.84
2017-02-14T06:41:37.689Z,1020.9
2017-02-14T06:42:47.891Z,1020.91
2017-02-14T06:43:57.641Z,1020.9
2017-02-14T06:45:07.497Z,1020.91
2017-02-14T06:46:17.267Z,1020.9
2017-02-14T06:47:27.475Z,1020.9
2017-02-14T06:48:37.236Z,1020.87
2017-02-14T06:49:46.999Z,1020.88
2017-02-14T06:50:56.831Z,1020.92
2017-02-14T06:52:06.603Z,1020.87
2017-02-14T06:53:16.799Z,1020.87
2017-02-14T06:54:26.138Z,1020.88
2017-02-14T06:55:36.784Z,1020.86
2017-02-14T06:56:47.052Z,1020.87
2017-02-14T06:57:58.183Z,1020.81
2017-02-14T06:59:07.971Z,1020.79
2017-02-14T07:00:17.729Z,1020.77
2017-02-14T07:01:27.941Z,1020.72
2017-02-14T07:02:37.764Z,1020.7
2017-02-14T07:03:47.540Z,1020.69
2017-02-14T07:04:57.310Z,1020.76
2017-02-14T07:06:07.082Z,1020.82
2017-02-14T07:07:17.303Z,1020.87
2017-02-14T07:08:27.120Z,1020.91
2017-02-14T07:09:36.889Z,1020.93
2017-02-14T07:10:46.707Z,1021
2017-02-14T07:11:57.344Z,1020.97
2017-02-14T07:13:06.670Z,1020.96
2017-02-14T07:14:17.370Z,1020.95
2017-02-14T07:15:27.597Z,1020.98
2017-02-14T07:16:36.929Z,1020.97
2017-02-14T07:17:46.698Z,1020.93
2017-02-14T07:18:57.347Z,1020.94
2017-02-14T07:20:07.152Z,1020.9
2017-02-14T07:21:17.359Z,1020.9
2017-02-14T07:22:27.131Z,1020.9
2017-02-14T07:23:36.905Z,1020.88
2017-02-14T07:24:46.253Z,1020.91
2017-02-14T07:25:56.506Z,1020.94
2017-02-14T07:27:06.257Z,1020.94
2017-02-14T07:28:15.576Z,1020.99
2017-02-14T07:29:25.338Z,1020.99
2017-02-14T07:30:35.553Z,1021.02
2017-02-14T07:31:45.355Z,1021.05
2017-02-14T07:32:55.149Z,1021.04
2017-02-14T07:34:04.906Z,1021.04
2017-02-14T07:35:14.271Z,1021.07
2017-02-14T07:36:24.053Z,1021.11
2017-02-14T07:37:34.315Z,1021.11
2017-02-14T07:38:44.068Z,1021.14
2017-02-14T07:39:53.409Z,1021.1
2017-02-14T07:41:03.605Z,1021.13
2017-02-14T07:42:13.362Z,1021.16
2017-02-14T07:43:23.196Z,1021.19
2017-02-14T07:44:32.993Z,1021.25
2017-02-14T07:45:43.222Z,1021.26
2017-02-14T07:46:52.987Z,1021.19
2017-02-14T07:48:02.776Z,1021.17
2017-02-14T07:49:12.597Z,1021.19
2017-02-14T07:50:22.367Z,1021.17
2017-02-14T07:51:33.900Z,1021.17
2017-02-14T07:52:43.654Z,1021.16
2017-02-14T07:53:53.459Z,1021.13
2017-02-14T07:55:03.416Z,1021.17
2017-02-14T07:56:13.201Z,1021.14
2017-02-14T07:57:23.418Z,1021.12
2017-02-14T07:58:33.172Z,1021.13
2017-02-14T07:59:43.388Z,1021.18
2017-02-14T08:00:53.201Z,1021.16
2017-02-14T08:02:03.396Z,1021.17
2017-02-14T08:03:13.595Z,1021.19
2017-02-14T08:04:23.363Z,1021.21
2017-02-14T08:05:33.570Z,1021.18
2017-02-14T08:06:43.403Z,1021.16
2017-02-14T08:07:53.204Z,1021.19
2017-02-14T08:09:02.965Z,1021.18
2017-02-14T08:10:12.743Z,1021.19
2017-02-14T08:11:22.947Z,1021.18
2017-02-14T08:12:32.777Z,1021.14
2017-02-14T08:13:42.542Z,1021.12
2017-02-14T08:14:52.319Z,1021.13
2017-02-14T08:16:03.397Z,1021.16
2017-02-14T08:17:12.734Z,1021.15
2017-02-14T08:18:22.534Z,1021.12
2017-02-14T08:19:32.314Z,1021.14
2017-02-14T08:20:42.511Z,1021.16
2017-02-14T08:21:52.286Z,1021.17
2017-02-14T08:23:02.047Z,1021.14
2017-02-14T08:24:12.284Z,1021.19
2017-02-14T08:25:22.523Z,1021.18
2017-02-14T08:26:32.299Z,1021.21
2017-02-14T08:27:42.940Z,1021.29
2017-02-14T08:28:53.169Z,1021.25
2017-02-14T08:30:02.994Z,1021.18
2017-02-14T08:31:12.787Z,1021.21
2017-02-14T08:32:22.569Z,1021.19
2017-02-14T08:33:32.342Z,1021.21
2017-02-14T08:34:42.100Z,1021.22
2017-02-14T08:35:51.962Z,1021.23
2017-02-14T08:37:01.281Z,1021.22
2017-02-14T08:38:11.059Z,1021.21
2017-02-14T08:39:20.843Z,1021.19
2017-02-14T08:40:30.609Z,1021.18
2017-02-14T08:41:40.418Z,1021.2
2017-02-14T08:42:50.167Z,1021.2
2017-02-14T08:44:00.389Z,1021.22
2017-02-14T08:45:10.181Z,1021.25
2017-02-14T08:46:19.955Z,1021.26
2017-02-14T08:47:29.800Z,1021.23
2017-02-14T08:48:39.571Z,1021.22
2017-02-14T08:49:48.906Z,1021.23
2017-02-14T08:51:00.011Z,1021.23
2017-02-14T08:52:09.772Z,1021.24
2017-02-14T08:53:20.014Z,1021.23
2017-02-14T08:54:31.535Z,1021.2
2017-02-14T08:55:41.300Z,1021.26
2017-02-14T08:56:51.949Z,1021.24
2017-02-14T08:58:01.715Z,1021.31
2017-02-14T08:59:11.522Z,1021.3
2017-02-14T09:00:21.284Z,1021.34
2017-02-14T09:01:31.082Z,1021.27
2017-02-14T09:02:40.879Z,1021.3
2017-02-14T09:03:51.537Z,1021.3
2017-02-14T09:05:01.357Z,1021.31
2017-02-14T09:06:12.001Z,1021.28
2017-02-14T09:07:21.765Z,1021.25
2017-02-14T09:08:31.077Z,1021.29
2017-02-14T09:09:41.290Z,1021.27
2017-02-14T09:10:52.009Z,1021.26
2017-02-14T09:12:01.802Z,1021.29
2017-02-14T09:13:11.140Z,1021.28
2017-02-14T09:14:21.358Z,1021.28
2017-02-14T09:15:31.119Z,1021.28
2017-02-14T09:16:40.920Z,1021.26
2017-02-14T09:17:51.155Z,1021.29
2017-02-14T09:19:02.255Z,1021.28
2017-02-14T09:20:12.022Z,1021.3
2017-02-14T09:21:22.670Z,1021.3
2017-02-14T09:22:32.139Z,1021.27
2017-02-14T09:23:41.891Z,1021.23
2017-02-14T09:24:51.649Z,1021.26
2017-02-14T09:26:01.419Z,1021.23
2017-02-14T09:27:11.635Z,1021.26
2017-02-14T09:28:21.465Z,1021.32
2017-02-14T09:29:31.270Z,1021.32
2017-02-14T09:30:41.483Z,1021.33
2017-02-14T09:31:51.263Z,1021.3
2017-02-14T09:33:00.578Z,1021.29
2017-02-14T09:34:10.450Z,1021.29
2017-02-14T09:35:20.660Z,1021.27
2017-02-14T09:36:30.407Z,1021.27
2017-02-14T09:37:40.166Z,1021.25
2017-02-14T09:38:49.932Z,1021.23
2017-02-14T09:40:00.188Z,1021.23
2017-02-14T09:41:09.958Z,1021.22
2017-02-14T09:42:19.739Z,1021.21
2017-02-14T09:43:29.539Z,1021.24
2017-02-14T09:44:39.309Z,1021.22
2017-02-14T09:45:49.111Z,1021.25
2017-02-14T09:46:58.879Z,1021.26
2017-02-14T09:48:09.085Z,1021.32
2017-02-14T09:49:19.306Z,1021.3
2017-02-14T09:50:29.545Z,1021.34
2017-02-14T09:51:39.365Z,1021.31
2017-02-14T09:52:49.150Z,1021.36
2017-02-14T09:53:58.923Z,1021.36
2017-02-14T09:55:08.701Z,1021.39
2017-02-14T09:56:18.905Z,1021.4
2017-02-14T09:57:28.726Z,1021.44
2017-02-14T09:58:38.519Z,1021.43
2017-02-14T09:59:48.729Z,1021.49
2017-02-14T10:00:58.938Z,1021.47
2017-02-14T10:02:08.707Z,1021.49
2017-02-14T10:03:18.524Z,1021.51
2017-02-14T10:04:28.278Z,1021.47
2017-02-14T10:05:39.392Z,1021.5
2017-02-14T10:06:48.712Z,1021.51
2017-02-14T10:07:58.509Z,1021.55
2017-02-14T10:09:08.337Z,1021.54
2017-02-14T10:10:19.011Z,1021.58
2017-02-14T10:11:29.204Z,1021.62
2017-02-14T10:12:38.994Z,1021.62
2017-02-14T10:13:48.752Z,1021.59
2017-02-14T10:14:59.056Z,1021.59
2017-02-14T10:16:08.836Z,1021.58
2017-02-14T10:17:18.626Z,1021.57
2017-02-14T10:18:28.377Z,1021.51
2017-02-14T10:19:38.161Z,1021.6
2017-02-14T10:20:47.970Z,1021.6
2017-02-14T10:21:57.731Z,1021.58
2017-02-14T10:23:07.533Z,1021.54
2017-02-14T10:24:17.767Z,1021.58
2017-02-14T10:25:27.103Z,1021.64
2017-02-14T10:26:37.349Z,1021.63
2017-02-14T10:27:47.133Z,1021.66
2017-02-14T10:28:57.760Z,1021.62
2017-02-14T10:30:07.544Z,1021.61
2017-02-14T10:31:17.289Z,1021.61
2017-02-14T10:32:27.539Z,1021.65
2017-02-14T10:33:37.308Z,1021.58
2017-02-14T10:34:47.073Z,1021.6
2017-02-14T10:35:57.270Z,1021.47
2017-02-14T10:37:07.503Z,1021.48
2017-02-14T10:38:17.780Z,1021.48
2017-02-14T10:39:27.550Z,1021.46
2017-02-14T10:40:38.199Z,1021.45
2017-02-14T10:41:48.396Z,1021.45
2017-02-14T10:42:58.147Z,1021.48
2017-02-14T10:44:07.531Z,1021.48
2017-02-14T10:45:16.871Z,1021.5
2017-02-14T10:46:26.624Z,1021.46
2017-02-14T10:47:36.382Z,1021.44
2017-02-14T10:48:46.166Z,1021.43
2017-02-14T10:49:56.446Z,1021.44
2017-02-14T10:51:06.693Z,1021.47
2017-02-14T10:52:16.462Z,1021.49
2017-02-14T10:53:27.596Z,1021.43
2017-02-14T10:54:37.809Z,1021.43
2017-02-14T10:55:47.723Z,1021.39
2017-02-14T10:56:57.047Z,1021.37
2017-02-14T10:58:07.712Z,1021.33
2017-02-14T10:59:17.917Z,1021.32
2017-02-14T11:00:27.715Z,1021.33
2017-02-14T11:01:37.544Z,1021.29
2017-02-14T11:02:47.749Z,1021.3
2017-02-14T11:03:57.506Z,1021.31
2017-02-14T11:05:07.256Z,1021.37
2017-02-14T11:06:17.461Z,1021.31
2017-02-14T11:07:27.710Z,1021.29
2017-02-14T11:08:38.379Z,1021.3
2017-02-14T11:09:49.073Z,1021.27
2017-02-14T11:10:58.885Z,1021.26
2017-02-14T11:12:09.526Z,1021.28
2017-02-14T11:13:19.576Z,1021.32
2017-02-14T11:14:30.233Z,1021.24
2017-02-14T11:15:40.005Z,1021.24
2017-02-14T11:16:50.207Z,1021.28
2017-02-14T11:18:00.409Z,1021.22
2017-02-14T11:19:10.678Z,1021.25
2017-02-14T11:20:20.454Z,1021.24
2017-02-14T11:21:30.664Z,1021.19
2017-02-14T11:22:40.437Z,1021.2
2017-02-14T11:23:50.223Z,1021.2
2017-02-14T11:25:00.031Z,1021.13
2017-02-14T11:26:09.817Z,1021.17
2017-02-14T11:27:19.587Z,1021.09
2017-02-14T11:28:28.927Z,1021.08
2017-02-14T11:29:38.692Z,1021.04
2017-02-14T11:30:48.934Z,1021.04
2017-02-14T11:31:58.694Z,1021.02
2017-02-14T11:33:08.448Z,1021.05
2017-02-14T11:34:18.253Z,1021.01
2017-02-14T11:35:28.007Z,1021.05
2017-02-14T11:36:37.827Z,1021.05
2017-02-14T11:37:47.597Z,1021.04
2017-02-14T11:38:58.266Z,1021
2017-02-14T11:40:08.043Z,1020.97
2017-02-14T11:41:17.812Z,1020.99
2017-02-14T11:42:27.633Z,1020.97
2017-02-14T11:43:38.275Z,1020.93
2017-02-14T11:44:48.467Z,1020.93
2017-02-14T11:45:58.265Z,1020.96
2017-02-14T11:47:08.470Z,1020.97
2017-02-14T11:48:18.327Z,1020.98
2017-02-14T11:49:28.076Z,1020.92
2017-02-14T11:50:37.841Z,1020.89
2017-02-14T11:51:47.607Z,1020.92
2017-02-14T11:52:57.376Z,1020.91
2017-02-14T11:54:07.200Z,1020.9
2017-02-14T11:55:16.958Z,1020.88
2017-02-14T11:56:26.724Z,1020.91
2017-02-14T11:57:36.953Z,1020.92
2017-02-14T11:58:47.171Z,1020.91
2017-02-14T11:59:57.012Z,1020.86
2017-02-14T12:01:06.336Z,1020.91
2017-02-14T12:02:16.093Z,1020.99
2017-02-14T12:03:25.859Z,1020.91
2017-02-14T12:04:35.645Z,1020.95
2017-02-14T12:05:45.025Z,1020.92
2017-02-14T12:06:54.802Z,1020.91
2017-02-14T12:08:05.001Z,1020.91
2017-02-14T12:09:14.345Z,1020.93
2017-02-14T12:10:24.549Z,1020.92
2017-02-14T12:11:35.267Z,1020.88
2017-02-14T12:12:45.048Z,1020.87
2017-02-14T12:13:54.804Z,1020.87
2017-02-14T12:15:04.577Z,1020.81
2017-02-14T12:16:14.333Z,1020.89
2017-02-14T12:17:25.128Z,1020.91
2017-02-14T12:18:34.910Z,1020.9
2017-02-14T12:19:45.131Z,1020.89
2017-02-14T12:20:54.888Z,1020.92
2017-02-14T12:22:04.693Z,1020.88
2017-02-14T12:23:14.975Z,1020.86
2017-02-14T12:24:24.760Z,1020.81
2017-02-14T12:25:34.519Z,1020.81
2017-02-14T12:26:44.297Z,1020.79
2017-02-14T12:27:54.527Z,1020.74
2017-02-14T12:29:04.340Z,1020.74
2017-02-14T12:30:14.121Z,1020.78
2017-02-14T12:31:24.334Z,1020.81
2017-02-14T12:32:34.968Z,1020.86
2017-02-14T12:33:44.723Z,1020.86
2017-02-14T12:34:54.094Z,1020.83
2017-02-14T12:36:03.867Z,1020.79
2017-02-14T12:37:14.088Z,1020.81
2017-02-14T12:38:24.735Z,1020.76
2017-02-14T12:39:34.958Z,1020.73
2017-02-14T12:40:45.777Z,1020.72
2017-02-14T12:41:55.557Z,1020.7
2017-02-14T12:43:05.354Z,1020.71
2017-02-14T12:44:15.144Z,1020.73
2017-02-14T12:45:25.796Z,1020.77
2017-02-14T12:46:35.613Z,1020.72
2017-02-14T12:47:45.368Z,1020.74
2017-02-14T12:48:55.144Z,1020.73
2017-02-14T12:50:06.245Z,1020.74
2017-02-14T12:51:16.014Z,1020.68
2017-02-14T12:52:25.820Z,1020.62
2017-02-14T12:53:36.026Z,1020.66
2017-02-14T12:54:45.382Z,1020.64
2017-02-14T12:55:55.142Z,1020.61
2017-02-14T12:57:04.911Z,1020.63
2017-02-14T12:58:15.621Z,1020.69
2017-02-14T12:59:25.414Z,1020.71
2017-02-14T13:00:35.607Z,1020.69
2017-02-14T13:01:45.408Z,1020.72
2017-02-14T13:02:55.613Z,1020.74
2017-02-14T13:04:05.423Z,1020.71
2017-02-14T13:05:15.636Z,1020.7
2017-02-14T13:06:25.863Z,1020.69
2017-02-14T13:07:35.227Z,1020.74
2017-02-14T13:08:44.997Z,1020.73
2017-02-14T13:09:55.262Z,1020.76
2017-02-14T13:11:04.606Z,1020.77
2017-02-14T13:12:14.383Z,1020.77
2017-02-14T13:13:24.608Z,1020.78
2017-02-14T13:14:34.373Z,1020.78
2017-02-14T13:15:43.770Z,1020.79
2017-02-14T13:16:54.007Z,1020.8
2017-02-14T13:18:03.797Z,1020.81
2017-02-14T13:19:14.002Z,1020.84
2017-02-14T13:20:23.760Z,1020.79
2017-02-14T13:21:33.572Z,1020.8
2017-02-14T13:22:43.330Z,1020.75
2017-02-14T13:23:53.542Z,1020.76
2017-02-14T13:25:03.344Z,1020.7
2017-02-14T13:26:13.989Z,1020.7
2017-02-14T13:27:23.794Z,1020.72
2017-02-14T13:28:33.564Z,1020.72
2017-02-14T13:29:43.328Z,1020.74
2017-02-14T13:30:53.086Z,1020.73
2017-02-14T13:32:02.859Z,1020.77
2017-02-14T13:33:12.667Z,1020.75
2017-02-14T13:34:22.430Z,1020.79
2017-02-14T13:35:31.746Z,1020.77
2017-02-14T13:36:41.511Z,1020.76
2017-02-14T13:37:51.293Z,1020.76
2017-02-14T13:39:01.566Z,1020.74
2017-02-14T13:40:11.331Z,1020.73
2017-02-14T13:41:21.094Z,1020.77
2017-02-14T13:42:31.302Z,1020.79
2017-02-14T13:43:41.070Z,1020.8
2017-02-14T13:44:50.876Z,1020.82
2017-02-14T13:46:00.665Z,1020.85
2017-02-14T13:47:10.439Z,1020.84
2017-02-14T13:48:20.659Z,1020.86
2017-02-14T13:49:30.417Z,1020.88
2017-02-14T13:50:40.350Z,1020.91
2017-02-14T13:51:50.157Z,1020.92
2017-02-14T13:52:59.484Z,1020.92
2017-02-14T13:54:09.281Z,1020.89
2017-02-14T13:55:19.054Z,1020.85
2017-02-14T13:56:29.336Z,1020.88
2017-02-14T13:57:40.009Z,1020.82
2017-02-14T13:58:50.244Z,1020.81
2017-02-14T13:59:59.588Z,1020.87
2017-02-14T14:01:09.368Z,1020.79
2017-02-14T14:02:19.198Z,1020.84
2017-02-14T14:03:28.975Z,1020.8
2017-02-14T14:04:39.189Z,1020.82
2017-02-14T14:05:49.870Z,1020.82
2017-02-14T14:07:00.088Z,1020.83
2017-02-14T14:08:09.476Z,1020.83
2017-02-14T14:09:20.138Z,1020.83